Time;durP1;ratioP1;P1;durP2;ratioP2;P2;SDS_P1;SDS_P2;PMS_P1;PMS_P2;Temp;Humidity;BMP_temperature;BMP_pressure;BME280_temperature;BME280_humidity;BME280_pressure;Samples;Min_cycle;Max_cycle;Signal;HPM_P1;HPM_P2
2021/11/16 00:00:18;;;;;;;58.30;37.45;;;;;;;5.30;100.00;100182.66;2096629;28;20743;-75
2021/11/16 00:01:24;;;;;;;57.50;37.67;;;;;;;5.27;100.00;100179.66;2095692;28;20604;-75
2021/11/16 00:02:25;;;;;;;62.60;36.97;;;;;;;5.23;100.00;100178.53;2095453;28;20245;-75
2021/11/16 00:03:27;;;;;;;53.77;36.93;;;;;;;5.22;100.00;100180.38;2096448;28;20249;-75
2021/11/16 00:04:30;;;;;;;56.13;36.25;;;;;;;5.19;100.00;100180.81;2096479;28;20221;-75
2021/11/16 00:05:32;;;;;;;59.88;38.15;;;;;;;5.18;100.00;100178.41;2096466;28;20784;-75
2021/11/16 00:06:34;;;;;;;61.15;39.53;;;;;;;5.18;100.00;100184.50;2095641;28;20222;-75
2021/11/16 00:07:35;;;;;;;61.55;39.63;;;;;;;5.17;100.00;100190.81;2087742;28;20318;-76
2021/11/16 00:08:36;;;;;;;57.73;38.17;;;;;;;5.17;100.00;100182.88;2095746;28;20319;-75
2021/11/16 00:09:39;;;;;;;61.70;39.65;;;;;;;5.16;100.00;100191.88;2095505;28;20218;-75
2021/11/16 00:10:43;;;;;;;57.15;37.90;;;;;;;5.18;100.00;100196.91;2095518;28;20225;-76
2021/11/16 00:11:45;;;;;;;54.63;37.25;;;;;;;5.18;100.00;100187.13;2095348;28;20221;-75
2021/11/16 00:12:46;;;;;;;59.90;39.22;;;;;;;5.17;100.00;100185.53;2095797;28;20325;-75
2021/11/16 00:13:49;;;;;;;57.42;38.53;;;;;;;5.15;100.00;100179.69;2096519;28;20279;-75
2021/11/16 00:14:50;;;;;;;60.35;37.85;;;;;;;5.16;100.00;100183.13;2095451;28;20246;-76
2021/11/16 00:15:54;;;;;;;57.80;38.73;;;;;;;5.17;100.00;100192.66;2087012;28;20218;-75
2021/11/16 00:16:55;;;;;;;60.88;36.67;;;;;;;5.15;100.00;100186.81;2095362;28;20309;-75
2021/11/16 00:17:57;;;;;;;57.57;37.87;;;;;;;5.17;100.00;100184.72;2096328;28;20716;-75
2021/11/16 00:19:00;;;;;;;54.53;36.88;;;;;;;5.15;100.00;100182.31;2096030;28;20228;-75
2021/11/16 00:20:04;;;;;;;57.47;37.13;;;;;;;5.15;100.00;100181.53;2095518;28;20245;-75
2021/11/16 00:21:07;;;;;;;55.42;37.08;;;;;;;5.11;100.00;100168.75;2087557;28;20233;-75
2021/11/16 00:22:09;;;;;;;57.92;39.38;;;;;;;5.10;100.00;100169.78;2082951;28;20224;-75
2021/11/16 00:23:16;;;;;;;57.30;36.95;;;;;;;5.13;100.00;100170.38;2089465;28;20279;-75
2021/11/16 00:24:20;;;;;;;56.03;36.85;;;;;;;5.09;100.00;100167.38;2087994;28;20276;-75
2021/11/16 00:25:31;;;;;;;64.43;38.08;;;;;;;5.13;100.00;100175.66;2088032;28;20230;-75
2021/11/16 00:26:33;;;;;;;57.78;37.28;;;;;;;5.11;100.00;100175.88;2089962;28;20234;-76
2021/11/16 00:27:35;;;;;;;57.08;37.00;;;;;;;5.15;100.00;100171.75;2087239;28;20239;-76
2021/11/16 00:28:37;;;;;;;56.38;37.40;;;;;;;5.16;100.00;100167.25;2081201;28;20224;-75
2021/11/16 00:29:38;;;;;;;51.60;35.03;;;;;;;5.14;100.00;100162.19;2080702;28;20259;-75
2021/11/16 00:30:40;;;;;;;52.97;33.90;;;;;;;5.12;100.00;100164.25;2079099;28;20227;-75
2021/11/16 00:31:41;;;;;;;53.20;36.30;;;;;;;5.10;100.00;100163.69;2079170;28;20231;-75
2021/11/16 00:32:45;;;;;;;53.28;36.03;;;;;;;5.06;100.00;100163.38;2087296;28;20625;-75
2021/11/16 00:33:47;;;;;;;55.50;35.75;;;;;;;5.05;100.00;100156.47;2087966;28;20678;-75
2021/11/16 00:34:49;;;;;;;55.75;36.30;;;;;;;5.05;100.00;100171.53;2088050;28;20228;-75
2021/11/16 00:35:51;;;;;;;52.47;35.28;;;;;;;5.04;100.00;100165.44;2087251;28;20292;-75
2021/11/16 00:36:52;;;;;;;49.88;35.63;;;;;;;5.04;100.00;100165.44;2078719;28;20227;-75
2021/11/16 00:37:54;;;;;;;50.55;34.88;;;;;;;5.03;100.00;100169.09;2087230;28;20244;-75
2021/11/16 00:38:55;;;;;;;52.30;35.88;;;;;;;5.02;100.00;100170.13;2087964;28;20673;-75
2021/11/16 00:40:03;;;;;;;50.15;34.70;;;;;;;5.02;100.00;100166.69;2087864;28;20227;-75
2021/11/16 00:41:06;;;;;;;54.97;36.78;;;;;;;5.04;100.00;100173.38;2087227;28;20218;-75
2021/11/16 00:42:07;;;;;;;51.53;36.05;;;;;;;5.04;100.00;100167.28;2086560;28;20292;-75
2021/11/16 00:43:09;;;;;;;53.87;35.30;;;;;;;5.04;100.00;100164.63;2087149;28;20308;-75
2021/11/16 00:44:10;;;;;;;52.88;37.22;;;;;;;5.02;100.00;100170.13;2087866;28;20583;-75
2021/11/16 00:45:13;;;;;;;58.27;37.33;;;;;;;5.03;100.00;100171.75;2087740;28;20237;-75
2021/11/16 00:46:17;;;;;;;55.25;37.40;;;;;;;5.03;100.00;100165.66;2087788;28;20219;-75
2021/11/16 00:47:18;;;;;;;58.88;37.05;;;;;;;5.03;100.00;100163.00;2087825;28;20701;-75
2021/11/16 00:48:23;;;;;;;59.20;37.55;;;;;;;5.01;100.00;100157.94;2087008;28;20248;-75
2021/11/16 00:49:24;;;;;;;55.25;37.67;;;;;;;5.00;100.00;100172.22;2087260;28;20218;-75
2021/11/16 00:50:25;;;;;;;57.13;37.60;;;;;;;5.03;100.00;100168.28;2095401;28;20283;-75
2021/11/16 00:51:27;;;;;;;57.35;36.50;;;;;;;5.02;100.00;100178.06;2087029;28;20229;-75
2021/11/16 00:52:28;;;;;;;55.85;36.00;;;;;;;4.99;100.00;100173.25;2078759;28;20698;-75
2021/11/16 00:53:33;;;;;;;53.10;37.13;;;;;;;5.00;100.00;100164.28;2078978;28;20574;-76
2021/11/16 00:54:34;;;;;;;53.95;35.40;;;;;;;5.01;100.00;100173.81;2087130;28;20253;-75
2021/11/16 00:55:36;;;;;;;57.33;36.93;;;;;;;4.99;100.00;100172.44;2087775;28;20222;-75
2021/11/16 00:56:38;;;;;;;59.90;37.25;;;;;;;4.98;100.00;100168.19;2087856;28;20223;-75
2021/11/16 00:57:40;;;;;;;55.60;36.88;;;;;;;4.98;100.00;100171.66;2087507;28;20222;-76
2021/11/16 00:58:40;;;;;;;58.17;37.88;;;;;;;4.98;100.00;100176.94;2086245;28;20258;-76
2021/11/16 00:59:43;;;;;;;56.07;36.90;;;;;;;4.99;100.00;100170.59;2087130;28;20238;-76
2021/11/16 01:00:46;;;;;;;52.70;36.05;;;;;;;5.00;100.00;100176.69;2089013;28;20665;-75
2021/11/16 01:01:47;;;;;;;55.90;36.85;;;;;;;5.00;100.00;100180.16;2078666;28;20693;-75
2021/11/16 01:02:49;;;;;;;58.20;35.93;;;;;;;4.98;100.00;100176.94;2078785;28;20585;-75
2021/11/16 01:03:49;;;;;;;54.55;36.33;;;;;;;4.98;100.00;100176.94;2089108;28;20226;-75
2021/11/16 01:04:52;;;;;;;58.57;37.50;;;;;;;5.00;100.00;100177.50;2087780;28;20302;-75
2021/11/16 01:05:54;;;;;;;56.97;37.60;;;;;;;5.01;100.00;100181.75;2087458;28;20235;-75
2021/11/16 01:06:56;;;;;;;56.10;37.22;;;;;;;5.03;100.00;100178.88;2087362;28;20220;-75
2021/11/16 01:08:00;;;;;;;61.83;37.97;;;;;;;5.03;100.00;100184.16;2086831;28;20227;-75
2021/11/16 01:09:02;;;;;;;56.53;36.45;;;;;;;5.02;100.00;100179.91;2087047;28;20223;-75
2021/11/16 01:10:04;;;;;;;52.70;37.53;;;;;;;5.03;100.00;100179.66;2086877;28;20728;-75
2021/11/16 01:11:06;;;;;;;57.97;37.72;;;;;;;5.04;100.00;100183.16;2086993;28;20219;-76
2021/11/16 01:12:10;;;;;;;55.60;37.20;;;;;;;5.05;100.00;100182.91;2087475;28;20225;-76
2021/11/16 01:13:12;;;;;;;58.63;37.92;;;;;;;5.05;100.00;100177.63;2087721;28;20230;-76
2021/11/16 01:14:16;;;;;;;54.90;37.72;;;;;;;5.10;100.00;100190.13;2086924;28;20414;-75
2021/11/16 01:15:19;;;;;;;57.47;37.25;;;;;;;5.07;100.00;100191.41;2079223;28;20289;-75
2021/11/16 01:16:21;;;;;;;56.10;37.90;;;;;;;5.06;100.00;100183.72;2087012;28;20226;-76
2021/11/16 01:17:22;;;;;;;59.63;38.00;;;;;;;5.06;100.00;100191.66;2087209;28;20230;-75
2021/11/16 01:18:26;;;;;;;55.73;37.43;;;;;;;5.07;100.00;100185.31;2087806;28;20226;-75
2021/11/16 01:19:27;;;;;;;57.17;37.90;;;;;;;5.04;100.00;100186.59;2087611;28;20245;-76
2021/11/16 01:20:29;;;;;;;60.92;39.08;;;;;;;5.05;100.00;100197.97;2087632;28;20219;-76
2021/11/16 01:21:33;;;;;;;56.80;39.15;;;;;;;5.04;100.00;100191.88;2086824;28;20299;-75
2021/11/16 01:22:33;;;;;;;61.17;39.08;;;;;;;5.04;100.00;100191.88;2087010;28;20226;-75
2021/11/16 01:23:35;;;;;;;60.40;39.73;;;;;;;5.03;100.00;100190.25;2088819;28;20232;-75
2021/11/16 01:24:36;;;;;;;56.83;38.22;;;;;;;5.04;100.00;100191.88;2086807;28;20246;-75
2021/11/16 01:25:39;;;;;;;56.33;37.27;;;;;;;5.02;100.00;100195.78;2088488;28;20251;-75
2021/11/16 01:26:43;;;;;;;60.78;39.75;;;;;;;5.02;100.00;100193.13;2087563;28;20555;-76
2021/11/16 01:27:47;;;;;;;62.20;38.45;;;;;;;5.01;100.00;100192.34;2086767;28;20222;-75
2021/11/16 01:28:49;;;;;;;57.88;39.25;;;;;;;5.02;100.00;100193.94;2078897;28;20254;-76
2021/11/16 01:29:53;;;;;;;56.17;37.60;;;;;;;5.01;100.00;100188.88;2086826;28;20223;-75
2021/11/16 01:30:58;;;;;;;59.83;39.22;;;;;;;5.00;100.00;100193.38;2088013;28;20747;-75
2021/11/16 01:32:00;;;;;;;60.47;38.03;;;;;;;4.95;100.00;100182.69;2086887;28;20222;-75
2021/11/16 01:33:04;;;;;;;56.80;38.83;;;;;;;4.95;100.00;100180.06;2086380;28;20273;-76
2021/11/16 01:34:08;;;;;;;57.22;38.13;;;;;;;4.96;100.00;100192.25;2086861;28;20214;-75
2021/11/16 01:35:11;;;;;;;58.90;37.78;;;;;;;4.96;100.00;100186.94;2086146;28;20689;-75
2021/11/16 01:36:17;;;;;;;56.28;37.20;;;;;;;4.96;100.00;100192.25;2078921;28;20631;-75
2021/11/16 01:37:18;;;;;;;60.08;38.63;;;;;;;5.01;100.00;100192.34;2078742;28;20230;-75
2021/11/16 01:38:22;;;;;;;58.20;38.43;;;;;;;5.00;100.00;100190.72;2087143;28;20692;-75
2021/11/16 01:39:23;;;;;;;57.22;39.38;;;;;;;4.97;100.00;100185.91;2094750;28;20249;-75
2021/11/16 01:40:25;;;;;;;63.97;38.90;;;;;;;5.02;100.00;100187.84;2094756;28;20719;-75
2021/11/16 01:41:29;;;;;;;56.53;38.78;;;;;;;5.01;100.00;100186.25;2094908;28;20464;-75
2021/11/16 01:42:30;;;;;;;62.10;41.22;;;;;;;5.02;100.00;100191.28;2095069;28;20269;-76
2021/11/16 01:43:33;;;;;;;56.93;37.33;;;;;;;5.01;100.00;100192.34;2095689;28;20226;-75
2021/11/16 01:44:34;;;;;;;52.92;36.45;;;;;;;5.04;100.00;100196.38;2095603;28;20222;-75
2021/11/16 01:45:37;;;;;;;54.63;36.13;;;;;;;5.04;100.00;100196.38;2094914;28;20267;-75
2021/11/16 01:46:38;;;;;;;57.75;37.70;;;;;;;5.04;100.00;100191.88;2084194;28;20227;-75
2021/11/16 01:47:40;;;;;;;61.70;39.08;;;;;;;5.03;100.00;100184.16;2086710;28;20265;-75
2021/11/16 01:48:41;;;;;;;57.72;37.97;;;;;;;5.03;100.00;100190.25;2086701;28;20231;-76
2021/11/16 01:49:48;;;;;;;58.55;37.40;;;;;;;5.02;100.00;100187.84;2086763;28;20222;-75
2021/11/16 01:50:50;;;;;;;55.70;38.17;;;;;;;5.02;100.00;100191.28;2086661;28;20272;-75
2021/11/16 01:51:51;;;;;;;58.17;38.22;;;;;;;5.04;100.00;100191.88;2086668;28;20736;-75
2021/11/16 01:52:53;;;;;;;59.80;37.37;;;;;;;5.05;100.00;100187.41;2078312;28;20247;-75
2021/11/16 01:54:01;;;;;;;59.80;37.95;;;;;;;5.02;100.00;100180.72;2088091;28;20218;-75
2021/11/16 01:55:03;;;;;;;61.90;39.42;;;;;;;5.05;100.00;100182.91;2087416;28;20219;-75
2021/11/16 01:56:06;;;;;;;59.10;38.88;;;;;;;5.05;100.00;100184.75;2086558;28;20218;-75
2021/11/16 01:57:07;;;;;;;56.00;37.53;;;;;;;5.06;100.00;100186.38;2086363;28;20277;-75
2021/11/16 01:58:09;;;;;;;60.90;38.53;;;;;;;5.01;100.00;100187.03;2086406;28;20589;-75
2021/11/16 01:59:14;;;;;;;59.53;38.03;;;;;;;5.00;100.00;100180.16;2086391;28;20305;-75
2021/11/16 02:00:18;;;;;;;56.40;37.35;;;;;;;4.99;100.00;100186.47;2087271;28;20223;-76
2021/11/16 02:01:20;;;;;;;59.35;38.80;;;;;;;4.94;100.00;100181.06;2087381;28;20226;-75
2021/11/16 02:02:21;;;;;;;60.80;39.47;;;;;;;4.98;100.00;100187.50;2086522;28;20304;-75
2021/11/16 02:03:24;;;;;;;59.97;40.10;;;;;;;4.97;100.00;100185.09;2086142;28;20810;-75
2021/11/16 02:04:27;;;;;;;59.97;38.65;;;;;;;4.98;100.00;100186.72;2087264;28;20302;-75
2021/11/16 02:05:37;;;;;;;57.47;39.30;;;;;;;4.98;100.00;100190.16;2086393;28;20319;-75
2021/11/16 02:06:39;;;;;;;57.47;39.25;;;;;;;4.99;100.00;100188.31;2086232;28;20685;-75
2021/11/16 02:07:43;;;;;;;66.22;40.45;;;;;;;4.97;100.00;100190.41;2087191;28;20230;-75
2021/11/16 02:08:44;;;;;;;58.63;39.28;;;;;;;4.99;100.00;100194.41;2087302;28;20676;-75
2021/11/16 02:09:48;;;;;;;57.53;39.90;;;;;;;4.98;100.00;100184.88;2086844;28;20638;-75
2021/11/16 02:10:54;;;;;;;59.75;41.30;;;;;;;5.01;100.00;100191.53;2086906;28;20234;-75
2021/11/16 02:11:55;;;;;;;60.75;39.20;;;;;;;5.01;100.00;100184.41;2086059;28;20697;-75
2021/11/16 02:12:56;;;;;;;65.10;40.15;;;;;;;5.01;100.00;100189.69;2086452;28;20653;-75
2021/11/16 02:13:58;;;;;;;63.13;41.20;;;;;;;5.01;100.00;100187.03;2087307;28;20304;-75
2021/11/16 02:15:01;;;;;;;61.70;40.80;;;;;;;5.03;100.00;100189.44;2087118;28;20226;-75
2021/11/16 02:16:02;;;;;;;62.05;39.60;;;;;;;5.02;100.00;100190.50;2086442;28;20229;-75
2021/11/16 02:17:06;;;;;;;61.80;40.67;;;;;;;5.04;100.00;100188.44;2078351;28;20223;-75
2021/11/16 02:18:09;;;;;;;55.17;39.40;;;;;;;5.08;100.00;100187.72;2086259;28;20230;-75
2021/11/16 02:19:13;;;;;;;62.28;41.45;;;;;;;5.06;100.00;100187.16;2088799;28;20227;-75
2021/11/16 02:20:16;;;;;;;65.70;41.72;;;;;;;5.04;100.00;100186.59;2087292;28;20245;-75
2021/11/16 02:21:20;;;;;;;60.33;40.63;;;;;;;5.05;100.00;100184.75;2086376;28;20708;-75
2021/11/16 02:22:20;;;;;;;63.08;40.30;;;;;;;5.04;100.00;100186.59;2086528;28;20226;-75
2021/11/16 02:23:23;;;;;;;69.93;43.47;;;;;;;5.03;100.00;100182.31;2087148;28;20307;-75
2021/11/16 02:24:25;;;;;;;65.13;42.20;;;;;;;5.02;100.00;100178.06;2086857;28;20284;-75
2021/11/16 02:25:27;;;;;;;63.10;40.50;;;;;;;5.04;100.00;100181.31;2086828;28;20230;-75
2021/11/16 02:26:28;;;;;;;61.10;41.10;;;;;;;5.03;100.00;100189.44;2086434;28;20579;-75
2021/11/16 02:27:30;;;;;;;61.20;41.23;;;;;;;5.04;100.00;100183.16;2085912;28;20246;-75
2021/11/16 02:28:31;;;;;;;53.53;38.30;;;;;;;5.05;100.00;100188.19;2078191;28;20269;-75
2021/11/16 02:29:32;;;;;;;53.97;36.23;;;;;;;5.01;100.00;100186.25;2086603;28;20223;-75
2021/11/16 02:30:34;;;;;;;60.17;39.08;;;;;;;4.99;100.00;100189.13;2087068;28;20287;-75
2021/11/16 02:31:36;;;;;;;53.85;36.38;;;;;;;4.98;100.00;100192.00;2087201;28;20227;-75
2021/11/16 02:32:37;;;;;;;53.85;37.95;;;;;;;4.96;100.00;100186.16;2086759;28;20239;-75
2021/11/16 02:33:39;;;;;;;57.47;38.47;;;;;;;4.98;100.00;100192.81;2087113;28;20265;-75
2021/11/16 02:34:39;;;;;;;54.50;37.58;;;;;;;4.96;100.00;100189.59;2087042;28;20262;-75
2021/11/16 02:35:45;;;;;;;57.20;37.53;;;;;;;4.95;100.00;100180.06;2085943;28;20314;-76
2021/11/16 02:36:49;;;;;;;53.88;37.55;;;;;;;4.95;100.00;100182.69;2086601;28;20223;-75
2021/11/16 02:37:52;;;;;;;62.90;39.35;;;;;;;4.95;100.00;100189.81;2087158;28;20734;-75
2021/11/16 02:38:53;;;;;;;52.65;37.28;;;;;;;4.94;100.00;100181.06;2085952;28;20222;-75
2021/11/16 02:39:55;;;;;;;55.87;36.43;;;;;;;4.95;100.00;100182.69;2086245;28;20734;-75
2021/11/16 02:40:56;;;;;;;58.95;37.53;;;;;;;4.92;100.00;100185.78;2087045;28;20229;-75
2021/11/16 02:41:57;;;;;;;59.00;39.20;;;;;;;4.93;100.00;100178.66;2087146;28;20310;-75
2021/11/16 02:43:03;;;;;;;54.03;36.78;;;;;;;4.92;100.00;100177.06;2086996;28;20223;-75
2021/11/16 02:44:06;;;;;;;57.45;37.25;;;;;;;4.94;100.00;100178.41;2087141;28;20227;-75
2021/11/16 02:45:08;;;;;;;56.85;37.88;;;;;;;4.95;100.00;100179.22;2085862;28;20720;-75
2021/11/16 02:46:10;;;;;;;55.90;38.08;;;;;;;4.95;100.00;100177.41;2078133;28;20231;-75
2021/11/16 02:47:12;;;;;;;53.80;37.63;;;;;;;4.97;100.00;100177.19;2078482;28;20269;-76
2021/11/16 02:48:13;;;;;;;54.60;37.10;;;;;;;4.93;100.00;100173.38;2086372;28;20696;-75
2021/11/16 02:49:16;;;;;;;52.92;37.22;;;;;;;4.92;100.00;100174.41;2086324;28;20222;-75
2021/11/16 02:50:18;;;;;;;58.45;37.83;;;;;;;4.94;100.00;100174.97;2086434;28;20586;-76
2021/11/16 02:51:21;;;;;;;55.15;37.38;;;;;;;4.93;100.00;100176.81;2087103;28;20228;-76
2021/11/16 02:52:24;;;;;;;59.30;38.92;;;;;;;4.94;100.00;100174.97;2086888;28;20229;-75
2021/11/16 02:53:26;;;;;;;54.15;37.72;;;;;;;4.95;100.00;100171.28;2086183;28;20211;-76
2021/11/16 02:54:27;;;;;;;55.60;37.35;;;;;;;4.95;100.00;100177.41;2078144;28;22427;-75
2021/11/16 02:55:30;;;;;;;61.65;39.08;;;;;;;4.94;100.00;100175.78;2078014;28;20219;-75
2021/11/16 02:56:34;;;;;;;55.78;38.15;;;;;;;4.95;100.00;100172.13;2086376;28;20737;-75
2021/11/16 02:57:38;;;;;;;55.72;38.13;;;;;;;4.99;100.00;100175.09;2087009;28;20701;-75
2021/11/16 02:58:40;;;;;;;58.13;39.22;;;;;;;4.97;100.00;100177.97;2086071;28;20230;-75
2021/11/16 02:59:43;;;;;;;59.40;38.83;;;;;;;4.96;100.00;100172.94;2086280;28;20257;-76
2021/11/16 03:00:47;;;;;;;58.58;38.78;;;;;;;4.97;100.00;100172.69;2085999;28;20576;-75
2021/11/16 03:01:49;;;;;;;57.38;37.97;;;;;;;4.99;100.00;100178.53;2078371;28;20219;-75
2021/11/16 03:02:50;;;;;;;60.33;39.05;;;;;;;4.98;100.00;100178.78;2078094;28;20723;-76
2021/11/16 03:03:55;;;;;;;50.88;36.03;;;;;;;4.96;100.00;100172.94;2085716;28;20252;-76
2021/11/16 03:04:56;;;;;;;60.42;39.33;;;;;;;4.96;100.00;100170.28;2078358;28;20292;-75
2021/11/16 03:05:58;;;;;;;58.33;39.37;;;;;;;4.94;100.00;100170.47;2077920;28;20231;-75
2021/11/16 03:06:59;;;;;;;61.30;40.45;;;;;;;4.97;100.00;100174.53;2077903;28;20725;-75
2021/11/16 03:08:03;;;;;;;63.15;40.03;;;;;;;4.97;100.00;100174.53;2086362;28;20222;-75
2021/11/16 03:09:04;;;;;;;61.97;40.38;;;;;;;4.96;100.00;100172.94;2086151;28;20309;-75
2021/11/16 03:10:08;;;;;;;63.78;39.90;;;;;;;4.93;100.00;100168.88;2086296;28;20739;-75
2021/11/16 03:11:13;;;;;;;62.75;40.97;;;;;;;4.97;100.00;100169.25;2085412;28;20232;-76
2021/11/16 03:12:14;;;;;;;64.30;41.78;;;;;;;4.96;100.00;100168.44;2078214;28;20580;-75
2021/11/16 03:13:16;;;;;;;61.25;39.92;;;;;;;4.97;100.00;100164.75;2077940;28;20231;-76
2021/11/16 03:14:17;;;;;;;62.15;40.88;;;;;;;4.99;100.00;100161.88;2077995;28;20233;-75
2021/11/16 03:15:19;;;;;;;65.53;41.40;;;;;;;4.98;100.00;100161.06;2077846;28;20227;-75
2021/11/16 03:16:21;;;;;;;61.20;41.13;;;;;;;4.96;100.00;100152.56;2077653;28;20223;-76
2021/11/16 03:17:25;;;;;;;60.53;40.42;;;;;;;4.97;100.00;100159.47;2085625;28;20279;-76
2021/11/16 03:18:26;;;;;;;64.60;41.00;;;;;;;4.97;100.00;100158.66;2086072;28;20222;-75
2021/11/16 03:19:28;;;;;;;64.93;41.23;;;;;;;4.96;100.00;100165.78;2086331;28;20234;-75
2021/11/16 03:20:29;;;;;;;67.32;40.60;;;;;;;4.94;100.00;100157.25;2086979;28;20219;-75
2021/11/16 03:21:30;;;;;;;64.43;42.70;;;;;;;4.96;100.00;100167.63;2087653;28;20692;-75
2021/11/16 03:22:42;;;;;;;66.15;41.58;;;;;;;4.92;100.00;100153.25;2088649;28;20230;-75
2021/11/16 03:23:46;;;;;;;64.95;41.15;;;;;;;4.91;100.00;100164.88;2087428;28;20319;-75
2021/11/16 03:24:48;;;;;;;62.40;40.83;;;;;;;4.91;100.00;100163.03;2087972;28;20223;-75
2021/11/16 03:25:53;;;;;;;68.85;40.95;;;;;;;4.91;100.00;100165.66;2088368;28;20226;-76
2021/11/16 03:26:54;;;;;;;64.82;40.90;;;;;;;4.92;100.00;100159.34;2088154;28;20231;-75
2021/11/16 03:27:59;;;;;;;63.92;40.45;;;;;;;4.92;100.00;100159.34;2087673;28;20229;-76
2021/11/16 03:29:01;;;;;;;62.08;40.08;;;;;;;4.95;100.00;100156.25;2087983;28;20223;-75
2021/11/16 03:30:03;;;;;;;65.18;40.80;;;;;;;4.92;100.00;100162.00;2087755;28;20233;-75
2021/11/16 03:31:10;;;;;;;63.42;41.10;;;;;;;4.88;100.00;100163.50;2087750;28;20219;-76
2021/11/16 03:32:17;;;;;;;69.40;43.03;;;;;;;4.80;100.00;100158.56;2087441;28;20246;-75
2021/11/16 03:33:20;;;;;;;69.20;45.10;;;;;;;4.86;100.00;100162.09;2080187;28;20309;-75
2021/11/16 03:34:26;;;;;;;68.35;43.55;;;;;;;4.85;100.00;100157.84;2079712;28;20298;-75
2021/11/16 03:35:27;;;;;;;71.30;43.90;;;;;;;4.81;100.00;100147.75;2087768;28;20309;-75
2021/11/16 03:36:29;;;;;;;70.03;43.30;;;;;;;4.82;100.00;100148.56;2095995;28;20314;-75
2021/11/16 03:37:34;;;;;;;70.60;44.10;;;;;;;4.81;100.00;100150.38;2088495;28;20952;-75
2021/11/16 03:38:37;;;;;;;69.80;42.58;;;;;;;4.80;100.00;100154.06;2087664;28;20712;-75
2021/11/16 03:39:41;;;;;;;68.72;42.35;;;;;;;4.81;100.00;100157.53;2087399;28;20716;-75
2021/11/16 03:40:43;;;;;;;68.22;43.40;;;;;;;4.81;100.00;100155.69;2087721;28;20285;-75
2021/11/16 03:41:45;;;;;;;68.03;43.47;;;;;;;4.81;100.00;100158.31;2079429;28;20227;-76
2021/11/16 03:42:49;;;;;;;66.95;41.63;;;;;;;4.80;100.00;100155.91;2079688;28;20697;-75
2021/11/16 03:43:51;;;;;;;65.50;41.70;;;;;;;4.80;100.00;100155.91;2087804;28;20319;-75
2021/11/16 03:44:53;;;;;;;68.28;42.78;;;;;;;4.80;100.00;100156.72;2088105;28;20222;-75
2021/11/16 03:45:58;;;;;;;71.65;43.50;;;;;;;4.77;100.00;100146.59;2088348;28;20236;-75
2021/11/16 03:47:00;;;;;;;67.22;42.80;;;;;;;4.81;100.00;100154.88;2087561;28;20301;-75
2021/11/16 03:48:01;;;;;;;65.60;43.42;;;;;;;4.81;100.00;100149.59;2079421;28;20281;-75
2021/11/16 03:49:04;;;;;;;67.60;42.90;;;;;;;4.79;100.00;100141.91;2079374;28;20223;-75
2021/11/16 03:50:08;;;;;;;66.32;42.28;;;;;;;4.80;100.00;100145.34;2087735;28;20448;-75
2021/11/16 03:51:10;;;;;;;66.28;43.00;;;;;;;4.79;100.00;100141.91;2087130;28;20250;-75
2021/11/16 03:52:11;;;;;;;66.53;41.17;;;;;;;4.78;100.00;100144.78;2087559;28;20218;-75
2021/11/16 03:53:13;;;;;;;61.22;41.97;;;;;;;4.76;100.00;100142.34;2088312;28;20302;-75
2021/11/16 03:54:15;;;;;;;65.75;42.35;;;;;;;4.76;100.00;100144.97;2088452;28;20218;-75
2021/11/16 03:55:18;;;;;;;67.88;42.30;;;;;;;4.75;100.00;100145.22;2087083;28;20225;-76
2021/11/16 03:56:19;;;;;;;66.15;42.85;;;;;;;4.75;100.00;100145.22;2079522;28;20734;-75
2021/11/16 03:57:22;;;;;;;68.57;43.53;;;;;;;4.73;100.00;100145.44;2079550;28;20594;-75
2021/11/16 03:58:25;;;;;;;65.93;42.50;;;;;;;4.74;100.00;100143.59;2087175;28;20449;-75
2021/11/16 03:59:28;;;;;;;64.60;43.35;;;;;;;4.75;100.00;100146.03;2088246;28;20222;-75
2021/11/16 04:00:31;;;;;;;66.55;43.45;;;;;;;4.75;100.00;100143.38;2088299;28;20302;-75
2021/11/16 04:01:34;;;;;;;61.60;41.85;;;;;;;4.73;100.00;100142.81;2088375;28;20226;-75
2021/11/16 04:02:35;;;;;;;62.30;41.00;;;;;;;4.74;100.00;100143.59;2087420;28;20275;-75
2021/11/16 04:03:39;;;;;;;68.27;43.00;;;;;;;4.71;100.00;100139.59;2087589;28;20272;-75
2021/11/16 04:04:42;;;;;;;66.88;42.30;;;;;;;4.75;100.00;100147.84;2088054;28;20222;-76
2021/11/16 04:05:44;;;;;;;66.45;41.88;;;;;;;4.74;100.00;100144.41;2088278;28;20572;-75
2021/11/16 04:06:46;;;;;;;71.88;44.53;;;;;;;4.73;100.00;100148.09;2087506;28;20276;-75
2021/11/16 04:07:48;;;;;;;64.78;43.00;;;;;;;4.74;100.00;100143.59;2079323;28;20231;-76
2021/11/16 04:08:49;;;;;;;68.93;42.80;;;;;;;4.73;100.00;100142.00;2079080;28;20215;-75
2021/11/16 04:09:50;;;;;;;64.03;42.17;;;;;;;4.73;100.00;100147.28;2087439;28;20780;-75
2021/11/16 04:10:54;;;;;;;63.10;40.03;;;;;;;4.71;100.00;100138.78;2088310;28;20226;-75
2021/11/16 04:11:54;;;;;;;63.20;39.50;;;;;;;4.69;100.00;100144.31;2087670;28;20218;-75
2021/11/16 04:12:58;;;;;;;63.00;41.90;;;;;;;4.72;100.00;100140.41;2088225;28;20269;-75
2021/11/16 04:14:00;;;;;;;60.78;40.78;;;;;;;4.71;100.00;100144.09;2087376;28;20240;-75
2021/11/16 04:15:03;;;;;;;66.55;43.03;;;;;;;4.70;100.00;100145.91;2078764;28;20239;-75
2021/11/16 04:16:04;;;;;;;65.43;42.80;;;;;;;4.69;100.00;100141.66;2079175;28;20252;-75
2021/11/16 04:17:06;;;;;;;64.57;40.97;;;;;;;4.69;100.00;100144.31;2087479;28;20230;-75
2021/11/16 04:18:08;;;;;;;63.20;40.53;;;;;;;4.69;100.00;100140.84;2095285;28;20284;-75
2021/11/16 04:19:10;;;;;;;66.22;42.78;;;;;;;4.67;100.00;100138.44;2087462;28;20244;-75
2021/11/16 04:20:13;;;;;;;66.38;42.78;;;;;;;4.70;100.00;100137.19;2095746;28;20229;-76
2021/11/16 04:21:15;;;;;;;62.03;40.47;;;;;;;4.70;100.00;100134.53;2095601;28;20255;-75
2021/11/16 04:22:16;;;;;;;66.40;42.38;;;;;;;4.71;100.00;100136.16;2095699;28;20225;-75
2021/11/16 04:23:18;;;;;;;62.40;41.27;;;;;;;4.69;100.00;100135.56;2096418;28;20224;-75
2021/11/16 04:24:19;;;;;;;65.60;41.25;;;;;;;4.67;100.00;100137.63;2096532;28;20685;-75
2021/11/16 04:25:21;;;;;;;60.67;41.70;;;;;;;4.69;100.00;100133.75;2096577;28;20627;-75
2021/11/16 04:26:25;;;;;;;63.20;41.10;;;;;;;4.68;100.00;100133.94;2095203;28;20271;-75
2021/11/16 04:27:26;;;;;;;60.03;40.08;;;;;;;4.66;100.00;100134.19;2087170;28;20284;-75
2021/11/16 04:28:32;;;;;;;65.72;42.90;;;;;;;4.64;100.00;100138.09;2087220;28;20223;-75
2021/11/16 04:29:33;;;;;;;59.53;41.03;;;;;;;4.60;100.00;100137.75;2095567;28;20230;-75
2021/11/16 04:30:35;;;;;;;63.50;41.80;;;;;;;4.59;100.00;100136.13;2095487;28;20226;-75
2021/11/16 04:31:36;;;;;;;61.53;40.45;;;;;;;4.56;100.00;100136.59;2087345;28;20231;-75
2021/11/16 04:32:38;;;;;;;57.20;38.63;;;;;;;4.61;100.00;100139.38;2094919;28;20230;-75
2021/11/16 04:33:38;;;;;;;55.72;38.38;;;;;;;4.60;100.00;100135.09;2094396;28;20226;-75
2021/11/16 04:34:42;;;;;;;59.33;39.63;;;;;;;4.59;100.00;100136.13;2095609;28;20249;-75
2021/11/16 04:35:43;;;;;;;62.67;40.15;;;;;;;4.60;100.00;100134.28;2095529;28;20221;-75
2021/11/16 04:36:45;;;;;;;58.70;39.75;;;;;;;4.58;100.00;100128.44;2095521;28;20769;-75
2021/11/16 04:37:48;;;;;;;62.88;41.00;;;;;;;4.50;100.00;100121.66;2096105;28;20272;-75
2021/11/16 04:38:49;;;;;;;60.00;40.03;;;;;;;4.50;100.00;100133.03;2095780;28;20222;-75
2021/11/16 04:39:50;;;;;;;61.78;40.47;;;;;;;4.50;100.00;100133.03;2087256;28;20226;-75
2021/11/16 04:40:56;;;;;;;57.97;39.27;;;;;;;4.48;100.00;100129.00;2087284;28;20242;-75
2021/11/16 04:41:59;;;;;;;58.47;38.47;;;;;;;4.48;100.00;100143.03;2080561;28;20238;-75
2021/11/16 04:43:07;;;;;;;61.15;38.67;;;;;;;4.43;100.00;100137.66;2079095;28;20243;-75
2021/11/16 04:44:08;;;;;;;62.15;40.00;;;;;;;4.42;100.00;100145.78;2086854;28;20223;-75